Archival Weather

Najaf

Najaf, Iraq (ORNI)

Report from: Tuesday, August 16, 2022 10:00 PM UTC
Current time: Tuesday, July 16, 2024 9:22 AM UTC

Current weather – Weather history – Daily summaries
Weather forecast

Temperature36.0°C (96.8°F)
Heat index33.6°C (92.4°F)
Dew point5.0°C (41.0°F)
Winds 13 kts (6.7 m/s, 15 mph) North-Northwest (330°)
Visibility3.7 mi. (6 km)
Altimeter29.53 in.Hg (1000 mB)
Relative humidity15 %
Density altitude2,952 ft. (900 m)
Remarks No significant changes expected in the next two hours
Flight conditions Marginal Visual Meteorological Conditions
Raw dataORNI 162200Z 33013KT 6000 NSC 36/05 Q1000 NOSIG
An error has occurred. This application may no longer respond until reloaded. Reload 🗙